sensor_id;sensor_type;location;lat;lon;timestamp;temperature;humidity
9820;DHT22;4949;48.482;9.206;2023-11-19T00:00:40;8.70;99.90
9820;DHT22;4949;48.482;9.206;2023-11-19T00:05:40;8.90;99.90
9820;DHT22;4949;48.482;9.206;2023-11-19T00:10:44;8.90;99.90
9820;DHT22;4949;48.482;9.206;2023-11-19T00:15:46;9.00;99.90
9820;DHT22;4949;48.482;9.206;2023-11-19T00:20:50;9.50;99.90
9820;DHT22;4949;48.482;9.206;2023-11-19T00:25:53;9.20;99.90
9820;DHT22;4949;48.482;9.206;2023-11-19T00:30:54;9.10;99.90
9820;DHT22;4949;48.482;9.206;2023-11-19T00:35:57;9.10;99.90
9820;DHT22;4949;48.482;9.206;2023-11-19T00:41:00;9.10;99.90
9820;DHT22;4949;48.482;9.206;2023-11-19T00:46:02;9.20;99.90
9820;DHT22;4949;48.482;9.206;2023-11-19T00:51:08;9.20;99.90
9820;DHT22;4949;48.482;9.206;2023-11-19T00:56:11;9.30;99.90
9820;DHT22;4949;48.482;9.206;2023-11-19T01:01:15;9.30;99.90
9820;DHT22;4949;48.482;9.206;2023-11-19T01:06:30;9.30;99.90
9820;DHT22;4949;48.482;9.206;2023-11-19T01:11:32;9.80;99.90
9820;DHT22;4949;48.482;9.206;2023-11-19T01:16:34;9.40;99.90
9820;DHT22;4949;48.482;9.206;2023-11-19T01:21:35;9.50;99.90
9820;DHT22;4949;48.482;9.206;2023-11-19T01:26:39;9.50;99.90
9820;DHT22;4949;48.482;9.206;2023-11-19T01:31:43;9.80;99.90
9820;DHT22;4949;48.482;9.206;2023-11-19T01:36:47;9.90;99.90
9820;DHT22;4949;48.482;9.206;2023-11-19T01:41:52;9.60;99.90
9820;DHT22;4949;48.482;9.206;2023-11-19T01:46:55;9.70;99.90
9820;DHT22;4949;48.482;9.206;2023-11-19T01:51:57;9.60;99.90
9820;DHT22;4949;48.482;9.206;2023-11-19T01:56:58;9.60;99.90
9820;DHT22;4949;48.482;9.206;2023-11-19T02:01:59;9.70;99.90
9820;DHT22;4949;48.482;9.206;2023-11-19T02:07:00;9.70;99.90
9820;DHT22;4949;48.482;9.206;2023-11-19T02:12:01;9.80;99.90
9820;DHT22;4949;48.482;9.206;2023-11-19T02:17:05;9.80;99.90
9820;DHT22;4949;48.482;9.206;2023-11-19T02:22:05;9.90;99.90
9820;DHT22;4949;48.482;9.206;2023-11-19T02:27:13;9.90;99.90
9820;DHT22;4949;48.482;9.206;2023-11-19T02:32:17;9.90;99.90
9820;DHT22;4949;48.482;9.206;2023-11-19T02:37:18;10.20;99.90
9820;DHT22;4949;48.482;9.206;2023-11-19T02:42:19;10.00;99.90
9820;DHT22;4949;48.482;9.206;2023-11-19T02:47:20;9.90;99.90
9820;DHT22;4949;48.482;9.206;2023-11-19T02:52:24;10.00;99.90
9820;DHT22;4949;48.482;9.206;2023-11-19T02:57:25;10.00;99.90
9820;DHT22;4949;48.482;9.206;2023-11-19T03:02:26;10.00;99.90
9820;DHT22;4949;48.482;9.206;2023-11-19T03:07:34;10.40;99.90
9820;DHT22;4949;48.482;9.206;2023-11-19T03:12:34;10.10;99.90
9820;DHT22;4949;48.482;9.206;2023-11-19T03:17:39;10.10;99.90
9820;DHT22;4949;48.482;9.206;2023-11-19T03:22:41;10.20;99.90
9820;DHT22;4949;48.482;9.206;2023-11-19T03:27:44;10.20;99.90
9820;DHT22;4949;48.482;9.206;2023-11-19T03:32:45;10.20;99.90
9820;DHT22;4949;48.482;9.206;2023-11-19T03:37:48;10.60;99.90
9820;DHT22;4949;48.482;9.206;2023-11-19T03:42:50;10.70;99.90
9820;DHT22;4949;48.482;9.206;2023-11-19T03:47:51;10.50;99.90
9820;DHT22;4949;48.482;9.206;2023-11-19T03:52:52;10.40;99.90
9820;DHT22;4949;48.482;9.206;2023-11-19T03:57:53;10.50;99.90
9820;DHT22;4949;48.482;9.206;2023-11-19T04:02:54;10.50;99.90
9820;DHT22;4949;48.482;9.206;2023-11-19T04:07:54;11.00;99.90
9820;DHT22;4949;48.482;9.206;2023-11-19T04:12:58;10.70;99.90
9820;DHT22;4949;48.482;9.206;2023-11-19T04:18:01;10.70;99.90
9820;DHT22;4949;48.482;9.206;2023-11-19T04:23:02;10.80;99.90
9820;DHT22;4949;48.482;9.206;2023-11-19T04:28:05;11.10;99.90
9820;DHT22;4949;48.482;9.206;2023-11-19T04:33:06;10.80;99.90
9820;DHT22;4949;48.482;9.206;2023-11-19T04:38:09;11.30;99.90
9820;DHT22;4949;48.482;9.206;2023-11-19T04:43:09;11.00;99.90
9820;DHT22;4949;48.482;9.206;2023-11-19T04:48:10;11.00;99.90
9820;DHT22;4949;48.482;9.206;2023-11-19T04:53:12;11.00;99.90
9820;DHT22;4949;48.482;9.206;2023-11-19T04:58:17;11.10;99.90
9820;DHT22;4949;48.482;9.206;2023-11-19T05:03:18;11.10;99.90
9820;DHT22;4949;48.482;9.206;2023-11-19T05:08:21;11.60;99.90
9820;DHT22;4949;48.482;9.206;2023-11-19T05:13:22;11.20;99.90
9820;DHT22;4949;48.482;9.206;2023-11-19T05:18:23;11.30;99.90
9820;DHT22;4949;48.482;9.206;2023-11-19T05:23:26;11.40;99.90
9820;DHT22;4949;48.482;9.206;2023-11-19T05:28:26;11.40;99.90
9820;DHT22;4949;48.482;9.206;2023-11-19T05:33:27;11.50;99.90
9820;DHT22;4949;48.482;9.206;2023-11-19T05:38:28;11.50;99.90
9820;DHT22;4949;48.482;9.206;2023-11-19T05:43:29;11.60;99.90
9820;DHT22;4949;48.482;9.206;2023-11-19T05:48:32;11.90;99.90
9820;DHT22;4949;48.482;9.206;2023-11-19T05:53:38;11.70;99.90
9820;DHT22;4949;48.482;9.206;2023-11-19T05:58:39;11.90;99.90
9820;DHT22;4949;48.482;9.206;2023-11-19T06:03:40;11.80;99.90
9820;DHT22;4949;48.482;9.206;2023-11-19T06:08:43;11.80;99.90
9820;DHT22;4949;48.482;9.206;2023-11-19T06:13:44;11.80;99.90
9820;DHT22;4949;48.482;9.206;2023-11-19T06:18:45;12.00;99.90
9820;DHT22;4949;48.482;9.206;2023-11-19T06:23:46;12.30;99.90
9820;DHT22;4949;48.482;9.206;2023-11-19T06:28:47;12.30;99.90
9820;DHT22;4949;48.482;9.206;2023-11-19T06:33:48;12.00;99.90
9820;DHT22;4949;48.482;9.206;2023-11-19T06:38:51;11.90;99.90
9820;DHT22;4949;48.482;9.206;2023-11-19T06:43:52;12.00;99.90
9820;DHT22;4949;48.482;9.206;2023-11-19T06:48:55;12.00;99.90
9820;DHT22;4949;48.482;9.206;2023-11-19T06:54:01;12.00;99.90
9820;DHT22;4949;48.482;9.206;2023-11-19T06:59:04;12.10;99.90
9820;DHT22;4949;48.482;9.206;2023-11-19T07:04:07;12.10;99.90
9820;DHT22;4949;48.482;9.206;2023-11-19T07:09:10;12.20;99.90
9820;DHT22;4949;48.482;9.206;2023-11-19T07:14:11;12.20;99.90
9820;DHT22;4949;48.482;9.206;2023-11-19T07:19:12;12.50;99.90
9820;DHT22;4949;48.482;9.206;2023-11-19T07:24:15;12.20;99.90
9820;DHT22;4949;48.482;9.206;2023-11-19T07:29:21;12.20;99.90
9820;DHT22;4949;48.482;9.206;2023-11-19T07:34:22;12.30;99.90
9820;DHT22;4949;48.482;9.206;2023-11-19T07:39:25;12.40;99.90
9820;DHT22;4949;48.482;9.206;2023-11-19T07:44:26;12.70;99.90
9820;DHT22;4949;48.482;9.206;2023-11-19T07:49:27;12.50;99.90
9820;DHT22;4949;48.482;9.206;2023-11-19T07:54:27;12.40;99.90
9820;DHT22;4949;48.482;9.206;2023-11-19T07:59:29;12.60;99.90
9820;DHT22;4949;48.482;9.206;2023-11-19T08:04:29;12.90;99.90
9820;DHT22;4949;48.482;9.206;2023-11-19T08:09:30;12.60;99.90
9820;DHT22;4949;48.482;9.206;2023-11-19T08:14:34;12.70;99.90
9820;DHT22;4949;48.482;9.206;2023-11-19T08:19:35;12.70;99.90
9820;DHT22;4949;48.482;9.206;2023-11-19T08:24:36;12.70;99.90
9820;DHT22;4949;48.482;9.206;2023-11-19T08:29:42;12.80;99.90
9820;DHT22;4949;48.482;9.206;2023-11-19T08:34:43;12.80;99.90
9820;DHT22;4949;48.482;9.206;2023-11-19T08:39:46;12.80;99.90
9820;DHT22;4949;48.482;9.206;2023-11-19T08:44:50;13.20;99.90
9820;DHT22;4949;48.482;9.206;2023-11-19T08:49:54;12.90;99.90
9820;DHT22;4949;48.482;9.206;2023-11-19T08:54:55;13.40;99.90
9820;DHT22;4949;48.482;9.206;2023-11-19T08:59:56;13.00;99.90
9820;DHT22;4949;48.482;9.206;2023-11-19T09:04:57;13.10;99.90
9820;DHT22;4949;48.482;9.206;2023-11-19T09:10:00;13.50;99.90
9820;DHT22;4949;48.482;9.206;2023-11-19T09:15:00;13.30;99.30
9820;DHT22;4949;48.482;9.206;2023-11-19T09:20:04;13.50;98.90
9820;DHT22;4949;48.482;9.206;2023-11-19T09:25:07;13.50;98.70
9820;DHT22;4949;48.482;9.206;2023-11-19T09:30:09;13.50;98.70
9820;DHT22;4949;48.482;9.206;2023-11-19T09:35:10;13.60;98.20
9820;DHT22;4949;48.482;9.206;2023-11-19T09:40:13;13.90;97.90
9820;DHT22;4949;48.482;9.206;2023-11-19T09:45:17;14.10;97.90
9820;DHT22;4949;48.482;9.206;2023-11-19T09:50:25;14.30;97.10
9820;DHT22;4949;48.482;9.206;2023-11-19T09:55:26;14.30;97.20
9820;DHT22;4949;48.482;9.206;2023-11-19T10:00:27;14.50;96.50
9820;DHT22;4949;48.482;9.206;2023-11-19T10:05:28;14.60;96.40
9820;DHT22;4949;48.482;9.206;2023-11-19T10:10:29;14.50;95.90
9820;DHT22;4949;48.482;9.206;2023-11-19T10:15:36;14.30;96.30
9820;DHT22;4949;48.482;9.206;2023-11-19T10:20:41;14.40;95.80
9820;DHT22;4949;48.482;9.206;2023-11-19T10:25:42;14.50;95.60
9820;DHT22;4949;48.482;9.206;2023-11-19T10:30:42;14.70;95.60
9820;DHT22;4949;48.482;9.206;2023-11-19T10:36:09;14.50;95.70
9820;DHT22;4949;48.482;9.206;2023-11-19T10:41:26;14.40;95.70
9820;DHT22;4949;48.482;9.206;2023-11-19T10:46:41;14.50;95.60
9820;DHT22;4949;48.482;9.206;2023-11-19T10:51:46;14.40;95.90
9820;DHT22;4949;48.482;9.206;2023-11-19T10:56:59;14.60;95.80
9820;DHT22;4949;48.482;9.206;2023-11-19T11:02:05;14.50;95.50
9820;DHT22;4949;48.482;9.206;2023-11-19T11:07:09;14.50;95.60
9820;DHT22;4949;48.482;9.206;2023-11-19T11:12:10;14.40;95.70
9820;DHT22;4949;48.482;9.206;2023-11-19T11:17:17;14.40;95.60
9820;DHT22;4949;48.482;9.206;2023-11-19T11:22:19;14.40;95.90
9820;DHT22;4949;48.482;9.206;2023-11-19T11:33:24;14.20;95.80
9820;DHT22;4949;48.482;9.206;2023-11-19T11:38:36;14.20;96.00
9820;DHT22;4949;48.482;9.206;2023-11-19T11:43:50;14.10;96.10
9820;DHT22;4949;48.482;9.206;2023-11-19T11:49:05;14.30;96.10
9820;DHT22;4949;48.482;9.206;2023-11-19T11:54:08;14.70;96.20
9820;DHT22;4949;48.482;9.206;2023-11-19T11:59:18;15.50;94.90
9820;DHT22;4949;48.482;9.206;2023-11-19T12:04:26;16.00;93.50
9820;DHT22;4949;48.482;9.206;2023-11-19T12:09:27;16.00;93.10
9820;DHT22;4949;48.482;9.206;2023-11-19T12:20:01;15.30;94.00
9820;DHT22;4949;48.482;9.206;2023-11-19T12:25:05;15.10;93.30
9820;DHT22;4949;48.482;9.206;2023-11-19T12:30:07;14.90;94.40
9820;DHT22;4949;48.482;9.206;2023-11-19T12:35:12;15.10;94.10
9820;DHT22;4949;48.482;9.206;2023-11-19T12:40:16;15.10;93.00
9820;DHT22;4949;48.482;9.206;2023-11-19T12:45:22;15.40;93.20
9820;DHT22;4949;48.482;9.206;2023-11-19T12:50:24;15.60;92.40
9820;DHT22;4949;48.482;9.206;2023-11-19T12:55:30;16.10;91.70
9820;DHT22;4949;48.482;9.206;2023-11-19T13:00:34;15.60;91.70
9820;DHT22;4949;48.482;9.206;2023-11-19T13:05:35;15.70;91.70
9820;DHT22;4949;48.482;9.206;2023-11-19T13:10:50;15.80;91.40
9820;DHT22;4949;48.482;9.206;2023-11-19T13:16:02;15.90;90.80
9820;DHT22;4949;48.482;9.206;2023-11-19T13:21:06;16.10;90.20
9820;DHT22;4949;48.482;9.206;2023-11-19T13:26:09;16.30;89.40
9820;DHT22;4949;48.482;9.206;2023-11-19T13:31:10;16.20;90.00
9820;DHT22;4949;48.482;9.206;2023-11-19T13:36:15;16.10;90.10
9820;DHT22;4949;48.482;9.206;2023-11-19T13:41:16;16.20;89.80
9820;DHT22;4949;48.482;9.206;2023-11-19T13:46:17;16.30;89.40
9820;DHT22;4949;48.482;9.206;2023-11-19T13:51:18;16.60;88.40
9820;DHT22;4949;48.482;9.206;2023-11-19T13:56:19;16.70;87.40
9820;DHT22;4949;48.482;9.206;2023-11-19T14:01:20;16.90;87.20
9820;DHT22;4949;48.482;9.206;2023-11-19T14:06:21;16.90;86.80
9820;DHT22;4949;48.482;9.206;2023-11-19T14:11:22;16.70;87.00
9820;DHT22;4949;48.482;9.206;2023-11-19T14:16:26;16.50;88.20
9820;DHT22;4949;48.482;9.206;2023-11-19T14:21:29;16.40;88.50
9820;DHT22;4949;48.482;9.206;2023-11-19T14:26:31;16.40;87.20
9820;DHT22;4949;48.482;9.206;2023-11-19T14:31:32;16.30;87.40
9820;DHT22;4949;48.482;9.206;2023-11-19T14:36:32;16.10;88.60
9820;DHT22;4949;48.482;9.206;2023-11-19T14:41:35;15.80;88.50
9820;DHT22;4949;48.482;9.206;2023-11-19T14:46:36;15.50;88.80
9820;DHT22;4949;48.482;9.206;2023-11-19T14:51:37;15.60;88.20
9820;DHT22;4949;48.482;9.206;2023-11-19T14:56:38;15.50;87.70
9820;DHT22;4949;48.482;9.206;2023-11-19T15:01:39;15.40;88.10
9820;DHT22;4949;48.482;9.206;2023-11-19T15:06:40;15.20;87.80
9820;DHT22;4949;48.482;9.206;2023-11-19T15:11:41;15.20;87.60
9820;DHT22;4949;48.482;9.206;2023-11-19T15:16:43;15.20;87.10
9820;DHT22;4949;48.482;9.206;2023-11-19T15:21:46;15.20;87.00
9820;DHT22;4949;48.482;9.206;2023-11-19T15:26:48;15.30;87.30
9820;DHT22;4949;48.482;9.206;2023-11-19T15:31:49;14.90;87.10
9820;DHT22;4949;48.482;9.206;2023-11-19T15:36:52;14.80;87.50
9820;DHT22;4949;48.482;9.206;2023-11-19T15:41:53;14.60;89.10
9820;DHT22;4949;48.482;9.206;2023-11-19T15:46:58;14.60;89.20
9820;DHT22;4949;48.482;9.206;2023-11-19T15:51:59;14.50;90.00
9820;DHT22;4949;48.482;9.206;2023-11-19T15:57:00;14.50;90.20
9820;DHT22;4949;48.482;9.206;2023-11-19T16:02:01;14.40;90.20
9820;DHT22;4949;48.482;9.206;2023-11-19T16:07:04;14.50;90.20
9820;DHT22;4949;48.482;9.206;2023-11-19T16:12:06;14.20;90.50
9820;DHT22;4949;48.482;9.206;2023-11-19T16:17:09;14.10;90.90
9820;DHT22;4949;48.482;9.206;2023-11-19T16:22:12;14.00;90.90
9820;DHT22;4949;48.482;9.206;2023-11-19T16:27:14;13.90;90.50
9820;DHT22;4949;48.482;9.206;2023-11-19T16:32:16;13.90;90.20
9820;DHT22;4949;48.482;9.206;2023-11-19T16:37:17;13.80;90.30
9820;DHT22;4949;48.482;9.206;2023-11-19T16:42:18;13.80;90.20
9820;DHT22;4949;48.482;9.206;2023-11-19T16:47:21;13.80;89.50
9820;DHT22;4949;48.482;9.206;2023-11-19T16:52:22;13.60;89.50
9820;DHT22;4949;48.482;9.206;2023-11-19T16:57:24;13.50;89.20
9820;DHT22;4949;48.482;9.206;2023-11-19T17:02:27;13.50;88.90
9820;DHT22;4949;48.482;9.206;2023-11-19T17:07:31;13.40;88.70
9820;DHT22;4949;48.482;9.206;2023-11-19T17:12:32;13.40;88.40
9820;DHT22;4949;48.482;9.206;2023-11-19T17:17:33;13.40;88.40
9820;DHT22;4949;48.482;9.206;2023-11-19T17:22:38;13.40;88.50
9820;DHT22;4949;48.482;9.206;2023-11-19T17:27:43;13.30;88.90
9820;DHT22;4949;48.482;9.206;2023-11-19T17:32:48;13.20;89.20
9820;DHT22;4949;48.482;9.206;2023-11-19T17:37:48;13.10;89.40
9820;DHT22;4949;48.482;9.206;2023-11-19T17:42:52;13.20;88.80
9820;DHT22;4949;48.482;9.206;2023-11-19T17:47:55;13.20;89.00
9820;DHT22;4949;48.482;9.206;2023-11-19T17:52:59;13.00;89.50
9820;DHT22;4949;48.482;9.206;2023-11-19T17:57:59;13.00;89.30
9820;DHT22;4949;48.482;9.206;2023-11-19T18:03:03;13.10;89.20
9820;DHT22;4949;48.482;9.206;2023-11-19T18:08:06;13.10;89.70
9820;DHT22;4949;48.482;9.206;2023-11-19T18:13:10;13.00;90.00
9820;DHT22;4949;48.482;9.206;2023-11-19T18:18:11;13.00;89.70
9820;DHT22;4949;48.482;9.206;2023-11-19T18:23:14;13.00;90.00
9820;DHT22;4949;48.482;9.206;2023-11-19T18:28:14;12.90;90.10
9820;DHT22;4949;48.482;9.206;2023-11-19T18:33:16;12.90;90.00
9820;DHT22;4949;48.482;9.206;2023-11-19T18:38:17;12.80;90.40
9820;DHT22;4949;48.482;9.206;2023-11-19T18:43:18;12.70;90.50
9820;DHT22;4949;48.482;9.206;2023-11-19T18:48:21;12.70;90.50
9820;DHT22;4949;48.482;9.206;2023-11-19T18:53:24;12.50;90.70
9820;DHT22;4949;48.482;9.206;2023-11-19T18:58:25;12.50;90.90
9820;DHT22;4949;48.482;9.206;2023-11-19T19:03:28;12.50;90.90
9820;DHT22;4949;48.482;9.206;2023-11-19T19:08:31;12.90;90.80
9820;DHT22;4949;48.482;9.206;2023-11-19T19:13:36;12.60;90.60
9820;DHT22;4949;48.482;9.206;2023-11-19T19:18:40;12.60;90.70
9820;DHT22;4949;48.482;9.206;2023-11-19T19:23:40;12.50;90.80
9820;DHT22;4949;48.482;9.206;2023-11-19T19:28:41;12.50;90.80
9820;DHT22;4949;48.482;9.206;2023-11-19T19:33:42;12.40;90.70
9820;DHT22;4949;48.482;9.206;2023-11-19T19:38:43;12.80;90.70
9820;DHT22;4949;48.482;9.206;2023-11-19T19:43:44;12.50;90.50
9820;DHT22;4949;48.482;9.206;2023-11-19T19:48:44;12.80;90.90
9820;DHT22;4949;48.482;9.206;2023-11-19T19:53:45;12.50;90.30
9820;DHT22;4949;48.482;9.206;2023-11-19T19:58:49;12.90;90.50
9820;DHT22;4949;48.482;9.206;2023-11-19T20:03:50;12.40;90.50
9820;DHT22;4949;48.482;9.206;2023-11-19T20:08:51;12.50;90.30
9820;DHT22;4949;48.482;9.206;2023-11-19T20:13:52;12.50;90.00
9820;DHT22;4949;48.482;9.206;2023-11-19T20:18:55;12.40;90.30
9820;DHT22;4949;48.482;9.206;2023-11-19T20:24:01;12.80;90.50
9820;DHT22;4949;48.482;9.206;2023-11-19T20:29:03;12.80;90.60
9820;DHT22;4949;48.482;9.206;2023-11-19T20:34:04;12.30;90.70
9820;DHT22;4949;48.482;9.206;2023-11-19T20:39:05;12.40;90.70
9820;DHT22;4949;48.482;9.206;2023-11-19T20:44:06;12.40;90.90
9820;DHT22;4949;48.482;9.206;2023-11-19T20:49:10;12.30;91.20
9820;DHT22;4949;48.482;9.206;2023-11-19T20:54:12;12.20;91.40
9820;DHT22;4949;48.482;9.206;2023-11-19T20:59:12;12.20;91.30
9820;DHT22;4949;48.482;9.206;2023-11-19T21:04:16;12.10;91.60
9820;DHT22;4949;48.482;9.206;2023-11-19T21:09:17;12.00;91.90
9820;DHT22;4949;48.482;9.206;2023-11-19T21:14:18;12.00;91.90
9820;DHT22;4949;48.482;9.206;2023-11-19T21:19:21;12.00;91.70
9820;DHT22;4949;48.482;9.206;2023-11-19T21:24:22;12.00;91.50
9820;DHT22;4949;48.482;9.206;2023-11-19T21:29:24;12.00;91.30
9820;DHT22;4949;48.482;9.206;2023-11-19T21:34:25;11.90;91.30
9820;DHT22;4949;48.482;9.206;2023-11-19T21:39:29;11.90;91.50
9820;DHT22;4949;48.482;9.206;2023-11-19T21:44:30;12.20;91.90
9820;DHT22;4949;48.482;9.206;2023-11-19T21:49:33;12.20;92.20
9820;DHT22;4949;48.482;9.206;2023-11-19T21:54:35;11.80;92.10
9820;DHT22;4949;48.482;9.206;2023-11-19T21:59:36;11.80;92.30
9820;DHT22;4949;48.482;9.206;2023-11-19T22:04:36;11.80;92.50
9820;DHT22;4949;48.482;9.206;2023-11-19T22:09:37;11.90;92.60
9820;DHT22;4949;48.482;9.206;2023-11-19T22:14:38;12.00;92.80
9820;DHT22;4949;48.482;9.206;2023-11-19T22:19:39;12.00;92.90
9820;DHT22;4949;48.482;9.206;2023-11-19T22:24:44;11.90;93.30
9820;DHT22;4949;48.482;9.206;2023-11-19T22:29:45;12.20;93.70
9820;DHT22;4949;48.482;9.206;2023-11-19T22:34:51;11.90;93.50
9820;DHT22;4949;48.482;9.206;2023-11-19T22:39:53;11.90;93.30
9820;DHT22;4949;48.482;9.206;2023-11-19T22:44:54;11.90;93.50
9820;DHT22;4949;48.482;9.206;2023-11-19T22:49:57;11.90;93.60
9820;DHT22;4949;48.482;9.206;2023-11-19T22:54:58;12.00;93.90
9820;DHT22;4949;48.482;9.206;2023-11-19T22:59:59;12.20;94.20
9820;DHT22;4949;48.482;9.206;2023-11-19T23:05:00;12.00;94.10
9820;DHT22;4949;48.482;9.206;2023-11-19T23:10:03;12.00;94.00
9820;DHT22;4949;48.482;9.206;2023-11-19T23:15:08;11.90;94.20
9820;DHT22;4949;48.482;9.206;2023-11-19T23:20:14;11.90;94.30
9820;DHT22;4949;48.482;9.206;2023-11-19T23:25:18;11.90;94.10
9820;DHT22;4949;48.482;9.206;2023-11-19T23:30:18;11.90;93.80
9820;DHT22;4949;48.482;9.206;2023-11-19T23:35:19;11.70;93.90
9820;DHT22;4949;48.482;9.206;2023-11-19T23:40:20;11.70;93.90
9820;DHT22;4949;48.482;9.206;2023-11-19T23:45:21;11.80;93.80
9820;DHT22;4949;48.482;9.206;2023-11-19T23:50:23;12.10;93.90
9820;DHT22;4949;48.482;9.206;2023-11-19T23:55:27;11.90;94.30
